Terminal Aerodrome Forecast
Issued by NWS Albuquerque, NM

Home | Current Version | Previous Version | Text Only | Print | Product List | Glossary On
Versions: 1 2 3 4 5 6 7 8 9 10 11 12 13 14 15 16 17 18 19 20 21
000
FTUS45 KABQ 020148 AAB
TAFABQ
TAF AMD
KABQ 020148Z 0202/0224 36011KT P6SM VCSH SCT060 BKN100
      TEMPO 0202/0204 VRB15G25KT 6SM -TSRA BKN060CB
     FM020400 11008KT P6SM VCSH BKN060
     FM020700 09005KT P6SM BKN100
     FM021500 21006KT P6SM BKN100
     FM022100 23010KT P6SM VCSH SCT060 BKN100=

USA.gov is the U.S. government's official web portal to all federal, state and local government web resources and services.